X  Blizu METAR Podaci o vazduhoplovstvu     EDDK Cologne Bonn Airport
Temperatura
23°C Temperatura
13°C Tačka Rose
53% Vlaga



Vetar
3 M/S
6 MPS
10 KM/S
5 Čvorovi



310°
SZ
Trenutna situacija

Delimično oblačno Delimično oblačno
Vazdušni pritisak 1018.96 (hPa) - 30.09 (inHg)
Vidljivost 6 (Milje) - 9.7 (km)
Aerodrom
Aerodromski kod. EDDK

Lokacija: Cologne Bonn Airport
Udaljenost: 56 (km)

Metar:
EDDK 231220Z AUTO 31005KT 240V360 9999 FEW044 23/13 Q1019 NOSIG

Vreme: 2024-06-23 14:20 CEST